createdAt,value
2022-10-04T00:03:22.654Z,73.74
2022-10-04T00:08:22.475Z,74.07
2022-10-04T00:13:25.429Z,73.87
2022-10-04T00:18:22.504Z,74.58
2022-10-04T00:23:22.218Z,73.94
2022-10-04T00:28:22.727Z,73.13
2022-10-04T00:33:22.239Z,73.46
2022-10-04T00:38:22.216Z,74.07
2022-10-04T00:45:01.648Z,74.72
2022-10-04T00:50:01.334Z,75.87
2022-10-04T00:55:02.220Z,77.57
2022-10-04T01:00:09.669Z,77.47
2022-10-04T01:06:42.928Z,77.20
2022-10-04T01:16:12.155Z,77.20
2022-10-04T01:21:11.863Z,78.12
2022-10-04T01:26:11.816Z,78.53
2022-10-04T01:31:11.662Z,77.61
2022-10-04T01:41:56.332Z,79.07
2022-10-04T01:49:20.515Z,80.37
2022-10-04T01:54:20.573Z,80.16
2022-10-04T01:59:20.568Z,80.98
2022-10-04T02:04:22.528Z,80.71
2022-10-04T02:09:20.323Z,82.73
2022-10-04T02:14:20.257Z,81.77
2022-10-04T02:19:20.309Z,81.60
2022-10-04T02:24:20.040Z,82.22
2022-10-04T02:29:20.076Z,83.07
2022-10-04T02:34:20.009Z,83.73
2022-10-04T02:39:22.993Z,84.14
2022-10-04T02:44:19.874Z,84.48
2022-10-04T02:49:19.738Z,84.69
2022-10-04T02:54:19.748Z,84.14
2022-10-04T02:59:19.656Z,83.52
2022-10-04T03:04:19.508Z,82.01
2022-10-04T03:09:19.474Z,81.30
2022-10-04T03:14:19.379Z,83.87
2022-10-04T03:19:19.490Z,83.83
2022-10-04T03:29:39.194Z,84.00
2022-10-04T03:34:38.908Z,83.44
2022-10-04T03:39:38.863Z,83.75
2022-10-04T03:44:38.918Z,82.79
2022-10-04T04:07:34.963Z,81.63
2022-10-04T04:12:34.351Z,82.49
2022-10-04T04:17:35.234Z,81.29
2022-10-04T04:26:21.028Z,83.00
2022-10-04T04:33:20.898Z,80.27
2022-10-04T04:38:14.088Z,80.57
2022-10-04T04:46:26.032Z,80.27
2022-10-04T04:51:08.299Z,81.98
2022-10-04T05:34:25.435Z,82.35
2022-10-04T05:41:03.820Z,79.62
2022-10-04T05:46:03.957Z,82.14
2022-10-04T05:51:03.679Z,83.30
2022-10-04T05:56:03.538Z,84.12
2022-10-04T06:01:03.679Z,81.86
2022-10-04T06:13:07.494Z,81.29
2022-10-04T07:13:52.284Z,75.90
2022-10-04T07:18:52.356Z,74.21
2022-10-04T07:35:20.429Z,73.02
2022-10-04T07:40:20.215Z,71.88
2022-10-04T07:45:20.098Z,70.96
2022-10-04T07:50:20.138Z,70.62
2022-10-04T07:55:20.114Z,70.18
2022-10-04T08:00:20.224Z,69.21
2022-10-04T08:05:19.955Z,68.37
2022-10-04T08:10:19.871Z,67.96
2022-10-04T08:15:22.351Z,68.26
2022-10-04T08:20:19.801Z,68.37
2022-10-04T08:36:22.879Z,68.77
2022-10-04T08:45:16.792Z,67.09
2022-10-04T08:54:16.642Z,65.11
2022-10-04T08:59:16.531Z,65.81
2022-10-04T09:04:16.344Z,64.78
2022-10-04T09:09:16.435Z,64.47
2022-10-04T09:14:16.315Z,64.47
2022-10-04T09:21:37.884Z,64.44
2022-10-04T09:26:37.462Z,65.42
2022-10-04T09:31:37.127Z,65.75
2022-10-04T09:36:36.891Z,64.54
2022-10-04T09:41:36.917Z,65.38
2022-10-04T09:46:36.947Z,66.19
2022-10-04T09:51:36.717Z,66.29
2022-10-04T09:56:36.787Z,67.43
2022-10-04T10:01:36.686Z,66.42
2022-10-04T10:06:36.469Z,66.42
2022-10-04T10:11:39.635Z,67.36
2022-10-04T10:16:36.405Z,68.51
2022-10-04T10:23:26.952Z,66.02
2022-10-04T10:28:26.703Z,65.61
2022-10-04T10:33:26.601Z,65.28
2022-10-04T10:38:26.594Z,64.90
2022-10-04T10:43:26.444Z,63.64
2022-10-04T10:48:26.464Z,65.62
2022-10-04T10:54:44.384Z,60.83
2022-10-04T10:59:44.215Z,61.03
2022-10-04T11:04:44.125Z,60.27
2022-10-04T11:09:43.911Z,57.35
2022-10-04T11:14:43.975Z,58.42
2022-10-04T11:19:43.793Z,59.08
2022-10-04T11:24:44.678Z,59.06
2022-10-04T11:29:43.638Z,57.62
2022-10-04T11:34:43.729Z,56.62
2022-10-04T11:39:44.615Z,57.50
2022-10-04T11:44:46.549Z,57.19
2022-10-04T11:49:43.409Z,56.92
2022-10-04T11:54:43.565Z,58.40
2022-10-04T11:59:43.423Z,56.49
2022-10-04T12:04:43.260Z,55.86
2022-10-04T12:09:43.375Z,56.43
2022-10-04T12:17:55.326Z,54.85
2022-10-04T12:24:12.959Z,55.28
2022-10-04T12:30:53.861Z,55.71
2022-10-04T12:35:52.722Z,54.58
2022-10-04T12:40:52.623Z,54.88
2022-10-04T12:47:10.323Z,53.34
2022-10-04T12:53:27.773Z,52.92
2022-10-04T12:58:34.778Z,52.80
2022-10-04T13:04:45.204Z,53.09
2022-10-04T13:10:19.125Z,51.04
2022-10-04T13:14:45.909Z,51.64
2022-10-04T13:19:44.929Z,50.64
2022-10-04T13:24:44.704Z,50.22
2022-10-04T13:29:44.723Z,49.19
2022-10-04T13:34:45.044Z,47.75
2022-10-04T13:39:45.722Z,47.22
2022-10-04T13:44:44.515Z,47.00
2022-10-04T13:49:44.514Z,45.98
2022-10-04T13:54:47.434Z,45.81
2022-10-04T13:59:44.413Z,46.62
2022-10-04T14:04:44.385Z,47.44
2022-10-04T14:09:44.112Z,45.76
2022-10-04T14:14:44.223Z,47.30
2022-10-04T14:19:44.089Z,47.25
2022-10-04T14:24:44.010Z,48.88
2022-10-04T14:29:43.839Z,45.36
2022-10-04T14:34:43.834Z,47.53
2022-10-04T14:39:43.764Z,49.97
2022-10-04T14:44:45.470Z,51.87
2022-10-04T14:49:43.530Z,53.75
2022-10-04T14:54:46.707Z,52.26
2022-10-04T14:59:43.527Z,53.22
2022-10-04T15:04:44.066Z,53.82
2022-10-04T15:09:43.358Z,55.55
2022-10-04T15:14:43.384Z,54.30
2022-10-04T15:19:43.139Z,54.91
2022-10-04T15:24:43.125Z,54.91
2022-10-04T15:29:43.306Z,55.91
2022-10-04T15:34:43.017Z,54.96
2022-10-04T15:40:48.457Z,54.75
2022-10-04T15:46:02.254Z,54.43
2022-10-04T15:50:49.155Z,55.69
2022-10-04T15:55:48.143Z,55.82
2022-10-04T16:00:48.169Z,56.62
2022-10-04T16:05:48.125Z,58.03
2022-10-04T16:10:48.015Z,58.67
2022-10-04T16:15:47.914Z,59.20
2022-10-04T16:20:48.275Z,60.33
2022-10-04T16:25:49.367Z,60.80
2022-10-04T16:30:52.436Z,63.08
2022-10-04T16:35:52.646Z,65.19
2022-10-04T16:40:47.926Z,65.70
2022-10-04T16:45:47.716Z,65.80
2022-10-04T16:50:47.530Z,65.70
2022-10-04T16:55:47.562Z,65.62
2022-10-04T17:00:47.389Z,65.86
2022-10-04T17:05:47.195Z,65.73
2022-10-04T17:10:47.406Z,66.40
2022-10-04T17:15:47.115Z,66.57
2022-10-04T17:20:47.166Z,66.67
2022-10-04T17:25:47.050Z,67.11
2022-10-04T17:32:13.475Z,70.11
2022-10-04T17:38:32.010Z,72.17
2022-10-04T17:43:39.986Z,71.60
2022-10-04T17:48:39.756Z,71.94
2022-10-04T17:53:31.771Z,74.24
2022-10-04T17:58:31.619Z,74.96
2022-10-04T18:03:31.949Z,74.08
2022-10-04T18:08:43.431Z,73.74
2022-10-04T18:15:21.566Z,74.28
2022-10-04T18:20:26.343Z,74.18
2022-10-04T18:25:22.962Z,74.48
2022-10-04T18:30:21.076Z,74.69
2022-10-04T18:35:21.018Z,75.02
2022-10-04T18:40:21.649Z,75.74
2022-10-04T18:45:21.042Z,75.88
2022-10-04T18:50:21.870Z,75.16
2022-10-04T18:55:23.429Z,75.47
2022-10-04T19:00:20.969Z,75.88
2022-10-04T19:05:24.073Z,75.37
2022-10-04T19:10:21.450Z,76.97
2022-10-04T19:15:20.574Z,76.73
2022-10-04T19:20:20.439Z,77.37
2022-10-04T19:25:20.753Z,78.23
2022-10-04T19:30:20.338Z,78.33
2022-10-04T19:35:20.567Z,78.43
2022-10-04T19:40:29.080Z,77.72
2022-10-04T19:45:20.136Z,78.47
2022-10-04T19:50:20.058Z,78.47
2022-10-04T19:55:19.989Z,79.43
2022-10-04T20:00:21.207Z,79.52
2022-10-04T20:05:23.434Z,79.63
2022-10-04T20:10:19.814Z,80.28
2022-10-04T20:15:23.893Z,79.32
2022-10-04T20:20:20.699Z,78.67
2022-10-04T20:25:20.674Z,79.18
2022-10-04T20:30:19.605Z,80.34
2022-10-04T20:35:20.385Z,80.07
2022-10-04T20:40:19.414Z,79.52
2022-10-04T20:45:20.020Z,79.93
2022-10-04T20:50:19.319Z,80.04
2022-10-04T20:55:19.263Z,80.44
2022-10-04T21:00:19.198Z,79.83
2022-10-04T21:05:22.723Z,80.24
2022-10-04T21:10:19.145Z,81.44
2022-10-04T21:15:19.864Z,80.04
2022-10-04T21:20:18.838Z,81.51
2022-10-04T21:25:18.858Z,81.34
2022-10-04T21:30:18.793Z,81.10
2022-10-04T21:35:18.656Z,80.79
2022-10-04T21:40:18.598Z,79.69
2022-10-04T21:45:18.626Z,79.83
2022-10-04T21:50:18.433Z,80.28
2022-10-04T21:55:26.794Z,78.47
2022-10-04T22:00:25.823Z,80.44
2022-10-04T22:05:29.297Z,79.52
2022-10-04T22:10:18.269Z,81.10
2022-10-04T22:15:18.119Z,78.47
2022-10-04T22:20:18.029Z,78.77
2022-10-04T22:25:18.120Z,80.18
2022-10-04T22:30:17.972Z,78.77
2022-10-04T22:35:17.863Z,78.60
2022-10-04T22:40:17.765Z,78.64
2022-10-04T22:45:17.730Z,78.33
2022-10-04T22:50:17.649Z,77.98
2022-10-04T22:55:17.961Z,77.89
2022-10-04T23:00:17.578Z,77.58
2022-10-04T23:05:20.536Z,77.27
2022-10-04T23:10:17.455Z,78.33
2022-10-04T23:15:17.383Z,77.37
2022-10-04T23:20:17.216Z,76.83
2022-10-04T23:26:34.981Z,76.42
2022-10-04T23:31:34.854Z,77.48
2022-10-04T23:36:34.753Z,77.68
2022-10-04T23:41:35.051Z,77.37
2022-10-04T23:46:34.683Z,76.53
2022-10-04T23:55:56.908Z,75.27
